createdAt,value
2022-09-28T00:00:33.145Z,10.24
2022-09-28T00:03:42.967Z,10.31
2022-09-28T00:06:49.053Z,10.33
2022-09-28T00:09:55.522Z,10.29
2022-09-28T00:13:03.402Z,10.30
2022-09-28T00:16:12.230Z,10.24
2022-09-28T00:19:20.831Z,10.23
2022-09-28T00:22:27.218Z,10.24
2022-09-28T00:25:32.930Z,10.22
2022-09-28T00:28:39.354Z,10.22
2022-09-28T00:31:45.895Z,10.16
2022-09-28T00:34:55.391Z,10.10
2022-09-28T00:38:03.238Z,10.04
2022-09-28T00:41:10.078Z,9.97
2022-09-28T00:44:44.369Z,9.93
2022-09-28T00:47:55.144Z,9.88
2022-09-28T00:51:10.104Z,9.87
2022-09-28T00:54:19.158Z,9.88
2022-09-28T00:57:25.913Z,9.87
2022-09-28T01:00:32.607Z,9.86
2022-09-28T01:03:38.265Z,9.89
2022-09-28T01:06:50.082Z,9.92
2022-09-28T01:09:57.035Z,9.91
2022-09-28T01:13:03.732Z,9.94
2022-09-28T01:16:17.234Z,9.99
2022-09-28T01:19:44.031Z,9.99
2022-09-28T01:23:38.856Z,10.02
2022-09-28T01:27:06.904Z,10.01
2022-09-28T01:30:15.440Z,9.94
2022-09-28T01:33:27.387Z,9.95
2022-09-28T01:36:39.116Z,9.95
2022-09-28T01:39:49.982Z,10.01
2022-09-28T01:43:06.117Z,10.06
2022-09-28T01:46:20.359Z,10.13
2022-09-28T01:49:34.361Z,10.13
2022-09-28T01:52:49.653Z,10.09
2022-09-28T01:56:00.877Z,9.98
2022-09-28T01:59:15.180Z,9.90
2022-09-28T02:02:27.296Z,9.86
2022-09-28T02:05:36.733Z,9.85
2022-09-28T02:08:50.575Z,9.83
2022-09-28T02:12:03.397Z,9.82
2022-09-28T02:15:19.805Z,9.76
2022-09-28T02:18:25.476Z,9.70
2022-09-28T02:21:40.668Z,9.70
2022-09-28T02:24:55.854Z,9.66
2022-09-28T02:28:09.953Z,9.66
2022-09-28T02:31:18.491Z,9.62
2022-09-28T02:34:25.043Z,9.58
2022-09-28T02:37:31.316Z,9.56
2022-09-28T02:40:40.353Z,9.56
2022-09-28T02:44:00.588Z,9.58
2022-09-28T02:47:22.674Z,9.59
2022-09-28T02:50:40.901Z,9.47
2022-09-28T02:54:09.664Z,9.35
2022-09-28T02:57:31.370Z,9.26
2022-09-28T03:00:48.010Z,9.13
2022-09-28T03:04:04.244Z,9.01
2022-09-28T03:07:18.997Z,8.89
2022-09-28T03:10:30.653Z,8.78
2022-09-28T03:13:38.448Z,8.64
2022-09-28T03:16:46.861Z,8.51
2022-09-28T03:19:56.222Z,8.44
2022-09-28T03:23:23.680Z,8.32
2022-09-28T03:26:30.765Z,8.25
2022-09-28T03:29:36.542Z,8.24
2022-09-28T03:32:45.388Z,8.23
2022-09-28T03:35:54.489Z,8.20
2022-09-28T03:39:03.207Z,8.14
2022-09-28T03:42:09.030Z,8.10
2022-09-28T03:45:19.377Z,8.12
2022-09-28T03:48:32.051Z,8.17
2022-09-28T03:51:42.075Z,8.20
2022-09-28T03:54:49.335Z,8.19
2022-09-28T03:57:57.308Z,8.18
2022-09-28T04:01:06.489Z,8.09
2022-09-28T04:04:14.934Z,8.01
2022-09-28T04:07:23.718Z,7.93
2022-09-28T04:10:32.455Z,7.87
2022-09-28T04:13:38.098Z,7.83
2022-09-28T04:16:48.383Z,7.80
2022-09-28T04:19:54.890Z,7.80
2022-09-28T04:23:20.504Z,7.83
2022-09-28T04:26:28.041Z,7.86
2022-09-28T04:29:31.713Z,7.87
2022-09-28T04:32:38.638Z,7.87
2022-09-28T04:35:45.457Z,7.88
2022-09-28T04:38:54.350Z,7.93
2022-09-28T04:42:03.535Z,8.00
2022-09-28T04:45:10.838Z,8.05
2022-09-28T04:48:22.318Z,8.10
2022-09-28T04:51:40.311Z,8.15
2022-09-28T04:54:49.524Z,8.16
2022-09-28T04:57:56.034Z,8.15
2022-09-28T05:01:07.000Z,8.23
2022-09-28T05:04:38.890Z,8.26
2022-09-28T05:08:05.742Z,8.23
2022-09-28T05:11:16.352Z,8.27
2022-09-28T05:14:24.613Z,8.36
2022-09-28T05:17:31.931Z,8.42
2022-09-28T05:21:12.989Z,8.51
2022-09-28T05:24:19.293Z,8.54
2022-09-28T05:27:33.217Z,8.60
2022-09-28T05:30:45.440Z,8.63
2022-09-28T05:34:06.888Z,8.69
2022-09-28T05:37:12.518Z,8.75
2022-09-28T05:40:19.685Z,8.71
2022-09-28T05:43:29.325Z,8.64
2022-09-28T05:46:35.888Z,8.60
2022-09-28T05:49:41.525Z,8.64
2022-09-28T05:52:48.022Z,8.65
2022-09-28T05:55:53.703Z,8.68
2022-09-28T05:59:05.401Z,8.68
2022-09-28T06:02:13.545Z,8.63
2022-09-28T06:05:22.000Z,8.74
2022-09-28T06:08:27.563Z,8.90
2022-09-28T06:11:48.491Z,9.00
2022-09-28T06:15:20.413Z,9.10
2022-09-28T06:18:27.003Z,9.17
2022-09-28T06:21:59.361Z,9.30
2022-09-28T06:29:39.399Z,9.44
2022-09-28T06:32:50.039Z,9.52
2022-09-28T06:35:55.832Z,9.52
2022-09-28T06:39:03.187Z,9.54
2022-09-28T06:42:08.985Z,9.53
2022-09-28T06:45:34.005Z,9.54
2022-09-28T06:49:19.233Z,9.62
2022-09-28T06:52:45.235Z,9.61
2022-09-28T06:56:12.130Z,9.63
2022-09-28T06:59:18.595Z,9.67
2022-09-28T07:02:24.286Z,9.77
2022-09-28T07:05:37.155Z,9.80
2022-09-28T07:09:30.476Z,9.85
2022-09-28T07:12:52.453Z,9.87
2022-09-28T07:16:12.684Z,9.91
2022-09-28T07:19:19.282Z,9.99
2022-09-28T07:22:40.439Z,10.06
2022-09-28T07:25:50.090Z,10.07
2022-09-28T07:29:09.944Z,10.06
2022-09-28T07:32:37.659Z,10.07
2022-09-28T07:36:07.698Z,10.08
2022-09-28T07:39:17.441Z,10.12
2022-09-28T07:42:23.425Z,10.13
2022-09-28T07:45:30.341Z,10.20
2022-09-28T07:48:37.009Z,10.39
2022-09-28T07:52:06.516Z,10.69
2022-09-28T07:55:22.798Z,10.95
2022-09-28T07:58:49.756Z,11.14
2022-09-28T08:02:03.527Z,11.23
2022-09-28T08:05:11.913Z,11.41
2022-09-28T08:08:18.709Z,11.57
2022-09-28T08:11:28.223Z,11.68
2022-09-28T08:14:55.817Z,11.76
2022-09-28T08:18:34.946Z,11.82
2022-09-28T08:21:49.323Z,11.82
2022-09-28T08:24:56.332Z,11.77
2022-09-28T08:28:06.422Z,11.67
2022-09-28T08:31:16.775Z,11.55
2022-09-28T08:35:01.001Z,11.48
2022-09-28T08:38:24.009Z,11.45
2022-09-28T08:41:54.045Z,11.41
2022-09-28T08:45:41.793Z,11.49
2022-09-28T08:49:24.610Z,11.61
2022-09-28T08:52:51.488Z,11.78
2022-09-28T08:56:13.830Z,11.97
2022-09-28T08:59:25.621Z,11.97
2022-09-28T09:02:42.539Z,11.94
2022-09-28T09:06:08.764Z,11.86
2022-09-28T09:09:50.733Z,11.71
2022-09-28T09:13:07.343Z,11.74
2022-09-28T09:16:24.532Z,11.79
2022-09-28T09:20:18.453Z,11.94
2022-09-28T09:23:44.269Z,12.22
2022-09-28T09:26:59.315Z,12.39
2022-09-28T09:30:11.672Z,12.55
2022-09-28T09:33:57.128Z,12.83
2022-09-28T09:38:03.121Z,12.88
2022-09-28T09:41:39.533Z,12.90
2022-09-28T09:45:21.923Z,12.85
2022-09-28T09:48:51.942Z,12.85
2022-09-28T09:52:03.087Z,12.89
2022-09-28T09:55:22.140Z,12.97
2022-09-28T09:58:39.621Z,13.03
2022-09-28T10:01:59.816Z,13.17
2022-09-28T10:05:25.741Z,13.16
2022-09-28T10:08:38.191Z,13.21
2022-09-28T10:11:50.278Z,13.33
2022-09-28T10:14:57.529Z,13.46
2022-09-28T10:18:13.537Z,13.58
2022-09-28T10:21:40.725Z,13.65
2022-09-28T10:25:03.745Z,13.66
2022-09-28T10:28:21.296Z,13.67
2022-09-28T10:31:38.784Z,13.60
2022-09-28T10:34:51.029Z,13.51
2022-09-28T10:38:03.615Z,13.55
2022-09-28T10:41:25.807Z,13.78
2022-09-28T10:44:53.553Z,13.94
2022-09-28T10:48:25.927Z,13.92
2022-09-28T10:51:47.149Z,13.86
2022-09-28T10:55:03.381Z,13.79
2022-09-28T10:58:28.592Z,13.81
2022-09-28T11:01:38.680Z,13.85
2022-09-28T11:04:46.270Z,13.93
2022-09-28T11:07:55.587Z,14.00
2022-09-28T11:11:10.899Z,14.19
2022-09-28T11:14:29.294Z,14.49
2022-09-28T11:17:42.271Z,14.78
2022-09-28T11:20:50.527Z,14.89
2022-09-28T11:24:23.386Z,15.04
2022-09-28T11:27:31.238Z,15.16
2022-09-28T11:30:42.872Z,15.23
2022-09-28T11:34:24.907Z,15.34
2022-09-28T11:38:00.533Z,15.50
2022-09-28T11:41:45.405Z,15.58
2022-09-28T11:44:52.274Z,15.70
2022-09-28T11:48:04.414Z,15.84
2022-09-28T11:51:19.792Z,15.87
2022-09-28T11:54:33.086Z,16.06
2022-09-28T11:57:43.406Z,16.13
2022-09-28T12:00:55.984Z,16.06
2022-09-28T12:04:16.915Z,15.89
2022-09-28T12:07:30.255Z,15.68
2022-09-28T12:10:45.284Z,15.36
2022-09-28T12:13:56.321Z,15.07
2022-09-28T12:17:09.737Z,14.95
2022-09-28T12:20:23.618Z,14.82
2022-09-28T12:23:36.862Z,14.79
2022-09-28T12:26:50.526Z,14.75
2022-09-28T12:30:03.885Z,14.84
2022-09-28T12:33:15.537Z,14.88
2022-09-28T12:36:40.639Z,15.04
2022-09-28T12:40:10.535Z,15.25
2022-09-28T12:43:35.474Z,15.47
2022-09-28T12:47:09.762Z,15.64
2022-09-28T12:50:40.636Z,15.71
2022-09-28T12:54:06.640Z,15.81
2022-09-28T12:57:40.877Z,16.07
2022-09-28T13:00:57.415Z,16.29
2022-09-28T13:04:16.158Z,16.38
2022-09-28T13:07:33.638Z,16.47
2022-09-28T13:10:45.108Z,16.54
2022-09-28T13:14:03.355Z,16.56
2022-09-28T13:17:22.193Z,16.64
2022-09-28T13:20:40.899Z,16.57
2022-09-28T13:23:49.644Z,16.52
2022-09-28T13:26:59.825Z,16.45
2022-09-28T13:30:11.566Z,16.35
2022-09-28T13:33:33.935Z,16.29
2022-09-28T13:36:48.033Z,16.24
2022-09-28T13:39:56.910Z,16.21
2022-09-28T13:43:19.563Z,16.22
2022-09-28T13:46:40.042Z,16.11
2022-09-28T13:50:00.589Z,16.02
2022-09-28T13:53:20.064Z,15.99
2022-09-28T13:56:37.939Z,15.93
2022-09-28T13:59:56.081Z,15.88
2022-09-28T14:03:15.363Z,15.80
2022-09-28T14:06:27.452Z,15.72
2022-09-28T14:10:11.005Z,15.68
2022-09-28T14:13:55.950Z,15.66
2022-09-28T14:17:50.667Z,15.62
2022-09-28T14:21:32.205Z,15.63
2022-09-28T14:24:55.631Z,15.61
2022-09-28T14:28:18.968Z,15.56
2022-09-28T14:31:29.589Z,15.50
2022-09-28T14:34:39.708Z,15.43
2022-09-28T14:38:07.696Z,15.37
2022-09-28T14:41:31.429Z,15.31
2022-09-28T14:45:39.150Z,15.29
2022-09-28T14:48:49.843Z,15.24
2022-09-28T14:52:06.424Z,15.22
2022-09-28T14:55:35.610Z,15.17
2022-09-28T14:58:42.486Z,15.10
2022-09-28T15:01:54.033Z,15.09
2022-09-28T15:05:03.503Z,15.04
2022-09-28T15:08:10.447Z,15.03
2022-09-28T15:11:23.552Z,15.04
2022-09-28T15:14:31.953Z,15.06
2022-09-28T15:17:40.427Z,15.00
2022-09-28T15:20:50.496Z,14.99
2022-09-28T15:23:56.102Z,14.93
2022-09-28T15:27:07.299Z,14.92
2022-09-28T15:30:26.039Z,14.90
2022-09-28T15:33:50.160Z,14.78
2022-09-28T15:36:56.630Z,14.68
2022-09-28T15:40:03.974Z,14.61
2022-09-28T15:43:27.182Z,14.49
2022-09-28T15:46:40.614Z,14.09
2022-09-28T15:49:58.749Z,13.51
2022-09-28T15:53:08.731Z,13.01
2022-09-28T15:56:14.662Z,12.71
2022-09-28T15:59:32.546Z,12.39
2022-09-28T16:02:38.678Z,12.23
2022-09-28T16:05:47.568Z,12.17
2022-09-28T16:08:53.905Z,12.16
2022-09-28T16:12:00.515Z,12.20
2022-09-28T16:15:18.387Z,12.24
2022-09-28T16:18:25.769Z,12.24
2022-09-28T16:21:47.283Z,12.31
2022-09-28T16:24:58.315Z,12.28
2022-09-28T16:28:04.533Z,12.28
2022-09-28T16:31:33.848Z,12.26
2022-09-28T16:34:39.586Z,12.24
2022-09-28T16:37:48.341Z,12.23
2022-09-28T16:40:55.566Z,12.22
2022-09-28T16:44:06.465Z,12.21
2022-09-28T16:47:16.126Z,12.17
2022-09-28T16:50:24.099Z,12.14
2022-09-28T16:53:57.541Z,12.12
2022-09-28T16:57:06.416Z,12.10
2022-09-28T17:00:20.977Z,12.11
2022-09-28T17:03:31.641Z,12.12
2022-09-28T17:06:37.351Z,12.11
2022-09-28T17:09:44.480Z,12.14
2022-09-28T17:12:50.692Z,12.15
2022-09-28T17:15:57.688Z,12.15
2022-09-28T17:19:06.181Z,12.19
2022-09-28T17:22:14.325Z,12.19
2022-09-28T17:25:20.245Z,12.20
2022-09-28T17:28:28.870Z,12.22
2022-09-28T17:31:34.500Z,12.23
2022-09-28T17:34:48.290Z,12.20
2022-09-28T17:38:03.212Z,12.18
2022-09-28T17:41:09.779Z,12.18
2022-09-28T17:44:16.644Z,12.21
2022-09-28T17:47:23.269Z,12.23
2022-09-28T17:50:35.139Z,12.18
2022-09-28T17:53:41.648Z,12.14
2022-09-28T17:56:47.251Z,12.08
2022-09-28T17:59:54.130Z,12.01
2022-09-28T18:03:03.568Z,12.02
2022-09-28T18:06:19.451Z,12.08
2022-09-28T18:09:25.473Z,12.13
2022-09-28T18:12:32.058Z,12.16
2022-09-28T18:15:38.283Z,12.21
2022-09-28T18:18:44.966Z,12.25
2022-09-28T18:21:54.413Z,12.22
2022-09-28T18:25:00.865Z,12.20
2022-09-28T18:28:07.332Z,12.21
2022-09-28T18:31:19.301Z,12.20
2022-09-28T18:34:25.115Z,12.17
2022-09-28T18:37:38.038Z,12.18
2022-09-28T18:40:44.364Z,12.18
2022-09-28T18:43:52.110Z,12.20
2022-09-28T18:46:57.758Z,12.15
2022-09-28T18:50:04.213Z,12.12
2022-09-28T18:53:15.643Z,12.12
2022-09-28T18:56:22.610Z,12.14
2022-09-28T18:59:28.595Z,12.14
2022-09-28T19:02:35.472Z,12.15
2022-09-28T19:05:44.742Z,12.18
2022-09-28T19:08:58.540Z,12.22
2022-09-28T19:12:06.449Z,12.23
2022-09-28T19:15:13.113Z,12.24
2022-09-28T19:18:18.705Z,12.24
2022-09-28T19:21:25.189Z,12.22
2022-09-28T19:24:33.639Z,12.21
2022-09-28T19:27:40.452Z,12.15
2022-09-28T19:30:46.231Z,12.12
2022-09-28T19:33:53.173Z,12.06
2022-09-28T19:37:01.251Z,12.05
2022-09-28T19:40:13.220Z,12.04
2022-09-28T19:43:20.007Z,12.05
2022-09-28T19:46:27.308Z,12.04
2022-09-28T19:49:33.276Z,11.98
2022-09-28T19:52:40.042Z,11.91
2022-09-28T19:55:53.932Z,11.90
2022-09-28T19:59:00.395Z,11.90
2022-09-28T20:02:08.694Z,11.89
2022-09-28T20:05:15.744Z,11.89
2022-09-28T20:08:22.110Z,11.89
2022-09-28T20:11:31.619Z,11.88
2022-09-28T20:14:40.111Z,11.88
2022-09-28T20:17:46.818Z,11.86
2022-09-28T20:21:03.483Z,11.82
2022-09-28T20:24:10.044Z,11.80
2022-09-28T20:27:18.415Z,11.72
2022-09-28T20:30:24.917Z,11.64
2022-09-28T20:33:31.149Z,11.62
2022-09-28T20:36:37.977Z,11.63
2022-09-28T20:39:45.082Z,11.63
2022-09-28T20:42:55.906Z,11.68
2022-09-28T20:46:03.490Z,11.69
2022-09-28T20:49:10.314Z,11.70
2022-09-28T20:52:15.924Z,11.70
2022-09-28T20:55:22.634Z,11.70
2022-09-28T20:58:31.934Z,11.73
2022-09-28T21:01:38.667Z,11.73
2022-09-28T21:04:45.074Z,11.73
2022-09-28T21:07:51.477Z,11.70
2022-09-28T21:10:57.086Z,11.64
2022-09-28T21:14:09.513Z,11.60
2022-09-28T21:17:15.105Z,11.56
2022-09-28T21:20:21.610Z,11.50
2022-09-28T21:23:27.186Z,11.46
2022-09-28T21:26:35.240Z,11.45
2022-09-28T21:29:43.624Z,11.46
2022-09-28T21:32:51.085Z,11.45
2022-09-28T21:35:56.944Z,11.43
2022-09-28T21:39:08.226Z,11.43
2022-09-28T21:42:15.745Z,11.48
2022-09-28T21:45:27.930Z,11.50
2022-09-28T21:48:33.699Z,11.53
2022-09-28T21:51:40.542Z,11.56
2022-09-28T21:54:46.123Z,11.61
2022-09-28T21:57:54.013Z,11.65
2022-09-28T22:01:08.850Z,11.63
2022-09-28T22:04:15.360Z,11.60
2022-09-28T22:07:20.950Z,11.60
2022-09-28T22:10:27.384Z,11.57
2022-09-28T22:13:33.607Z,11.57
2022-09-28T22:16:42.829Z,11.55
2022-09-28T22:19:48.397Z,11.49
2022-09-28T22:22:54.904Z,11.45
2022-09-28T22:26:02.862Z,11.47
2022-09-28T22:29:11.483Z,11.46
2022-09-28T22:32:19.827Z,11.46
2022-09-28T22:35:26.258Z,11.39
2022-09-28T22:38:35.394Z,11.37
2022-09-28T22:41:41.920Z,11.29
2022-09-28T22:44:47.531Z,11.22
2022-09-28T22:47:56.710Z,11.14
2022-09-28T22:51:03.257Z,11.09
2022-09-28T22:54:10.019Z,11.00
2022-09-28T22:57:15.562Z,10.96
2022-09-28T23:00:22.378Z,10.91
2022-09-28T23:03:30.869Z,10.87
2022-09-28T23:06:37.585Z,10.79
2022-09-28T23:09:43.176Z,10.72
2022-09-28T23:12:49.746Z,10.68
2022-09-28T23:15:59.589Z,10.62
2022-09-28T23:19:09.276Z,10.59
2022-09-28T23:22:14.848Z,10.57
2022-09-28T23:25:21.899Z,10.56
2022-09-28T23:28:29.200Z,10.56
2022-09-28T23:31:36.189Z,10.53
2022-09-28T23:34:44.810Z,10.57
2022-09-28T23:37:53.619Z,10.59
2022-09-28T23:40:59.233Z,10.61
2022-09-28T23:44:06.462Z,10.60
2022-09-28T23:47:12.058Z,10.58
2022-09-28T23:50:21.278Z,10.61
2022-09-28T23:53:26.861Z,10.58
2022-09-28T23:56:33.438Z,10.60
2022-09-28T23:59:39.115Z,10.62
